Time;durP1;ratioP1;P1;durP2;ratioP2;P2;SDS_P1;SDS_P2;PMS_P1;PMS_P2;Temp;Humidity;BMP_temperature;BMP_pressure;BME280_temperature;BME280_humidity;BME280_pressure;Samples;Min_cycle;Max_cycle;Signal;HPM_P1;HPM_P2
2023/12/24 00:01:07;;;;;;;3.47;1.10;;;;;;;;;;5015041;28;20915;-70
2023/12/24 00:03:36;;;;;;;5.07;1.23;;;;;;;;;;5015831;28;20237;-71
2023/12/24 00:06:01;;;;;;;3.70;1.60;;;;;;;;;;5016021;28;20186;-71
2023/12/24 00:08:28;;;;;;;4.37;1.20;;;;;;;;;;5013480;28;20195;-71
2023/12/24 00:10:54;;;;;;;5.17;1.87;;;;;;;;;;5015539;28;20209;-71
2023/12/24 00:13:19;;;;;;;6.23;1.20;;;;;;;;;;5015061;28;20178;-71
2023/12/24 00:15:44;;;;;;;8.10;1.30;;;;;;;;;;5014940;28;20209;-71
2023/12/24 00:18:10;;;;;;;6.63;1.57;;;;;;;;;;5015350;28;20183;-71
2023/12/24 00:20:35;;;;;;;3.53;1.20;;;;;;;;;;5013598;28;20199;-70
2023/12/24 00:23:05;;;;;;;11.97;2.10;;;;;;;;;;5014643;28;20233;-70
2023/12/24 00:25:30;;;;;;;7.27;1.23;;;;;;;;;;5014369;28;20175;-70
2023/12/24 00:27:55;;;;;;;6.87;1.73;;;;;;;;;;5015010;28;20225;-72
2023/12/24 00:30:20;;;;;;;5.60;1.90;;;;;;;;;;5013087;28;20187;-71
2023/12/24 00:32:45;;;;;;;7.03;1.15;;;;;;;;;;5012254;28;20290;-71
2023/12/24 00:35:11;;;;;;;8.67;1.90;;;;;;;;;;5015358;28;20171;-71
2023/12/24 00:37:36;;;;;;;4.15;1.38;;;;;;;;;;5012298;28;20186;-71
2023/12/24 00:40:01;;;;;;;6.07;2.40;;;;;;;;;;5013800;28;20199;-71
2023/12/24 00:42:27;;;;;;;3.10;0.80;;;;;;;;;;5010352;28;20676;-71
2023/12/24 00:44:52;;;;;;;5.10;1.43;;;;;;;;;;5012677;28;20182;-70
2023/12/24 00:47:17;;;;;;;8.13;1.37;;;;;;;;;;5013532;28;20286;-70
2023/12/24 00:52:19;;;;;;;19.97;1.80;;;;;;;;;;4991623;28;20314;-68
2023/12/24 00:54:44;;;;;;;5.17;1.10;;;;;;;;;;4990273;28;20255;-69
2023/12/24 00:57:09;;;;;;;5.47;1.47;;;;;;;;;;4991564;28;20194;-69
2023/12/24 00:59:34;;;;;;;5.70;1.47;;;;;;;;;;4992831;28;20529;-67
2023/12/24 01:02:00;;;;;;;8.17;1.33;;;;;;;;;;4987011;28;20232;-69
2023/12/24 01:04:25;;;;;;;5.20;1.30;;;;;;;;;;4993700;28;20183;-68
2023/12/24 01:06:50;;;;;;;2.90;1.00;;;;;;;;;;4988768;28;20567;-69
2023/12/24 01:09:15;;;;;;;7.77;1.60;;;;;;;;;;4991689;28;20203;-69
2023/12/24 01:11:41;;;;;;;6.93;1.37;;;;;;;;;;4992220;28;20200;-69
2023/12/24 01:14:06;;;;;;;10.70;2.07;;;;;;;;;;4993826;28;20233;-69
2023/12/24 01:16:31;;;;;;;4.80;1.07;;;;;;;;;;4992882;28;20184;-69
2023/12/24 01:18:56;;;;;;;7.27;2.10;;;;;;;;;;4991961;28;20183;-69
2023/12/24 01:21:22;;;;;;;8.00;1.43;;;;;;;;;;4990182;28;20584;-68
2023/12/24 01:23:47;;;;;;;11.87;2.67;;;;;;;;;;4991272;28;20187;-67
2023/12/24 01:26:12;;;;;;;9.87;2.00;;;;;;;;;;4990855;28;20261;-69
2023/12/24 01:28:37;;;;;;;4.40;1.70;;;;;;;;;;4992275;28;20290;-68
2023/12/24 01:31:03;;;;;;;10.63;2.53;;;;;;;;;;4990789;28;20548;-69
2023/12/24 01:33:28;;;;;;;12.33;2.57;;;;;;;;;;4992339;28;20183;-69
2023/12/24 01:35:53;;;;;;;10.90;2.07;;;;;;;;;;4990621;28;20643;-69
2023/12/24 01:38:18;;;;;;;10.17;2.70;;;;;;;;;;4988199;28;20198;-69
2023/12/24 01:40:44;;;;;;;13.43;2.20;;;;;;;;;;4987511;28;20206;-69
2023/12/24 01:43:10;;;;;;;8.80;2.70;;;;;;;;;;4993083;28;20729;-69
2023/12/24 01:45:36;;;;;;;10.70;2.27;;;;;;;;;;4989868;28;20212;-69
2023/12/24 01:48:02;;;;;;;8.97;2.60;;;;;;;;;;4990813;28;20688;-69
2023/12/24 01:50:28;;;;;;;8.57;2.23;;;;;;;;;;4992328;28;20211;-69
2023/12/24 01:52:53;;;;;;;9.47;2.60;;;;;;;;;;4985430;28;20182;-68
2023/12/24 01:55:19;;;;;;;14.13;3.17;;;;;;;;;;4992474;28;20644;-69
2023/12/24 01:57:44;;;;;;;11.73;2.40;;;;;;;;;;4987541;28;20176;-69
2023/12/24 02:00:10;;;;;;;11.70;3.03;;;;;;;;;;4991844;28;20910;-69
2023/12/24 02:02:35;;;;;;;9.20;2.30;;;;;;;;;;4993079;28;20649;-70
2023/12/24 02:05:00;;;;;;;14.93;2.30;;;;;;;;;;4992333;28;20211;-69
2023/12/24 02:07:26;;;;;;;11.70;2.00;;;;;;;;;;4993004;28;20254;-68
2023/12/24 02:09:51;;;;;;;10.93;3.20;;;;;;;;;;4990561;28;20183;-70
2023/12/24 02:12:16;;;;;;;5.53;2.17;;;;;;;;;;4991512;28;20183;-70
2023/12/24 02:14:41;;;;;;;9.27;2.17;;;;;;;;;;4990740;28;20263;-70
2023/12/24 02:17:07;;;;;;;9.27;2.40;;;;;;;;;;4990832;28;20226;-70
2023/12/24 02:19:32;;;;;;;7.13;1.80;;;;;;;;;;4991627;28;20176;-70
2023/12/24 02:21:57;;;;;;;7.50;2.37;;;;;;;;;;4992073;28;20697;-70
2023/12/24 02:24:22;;;;;;;17.17;2.60;;;;;;;;;;4991160;28;20176;-70
2023/12/24 02:26:58;;;;;;;10.53;1.73;;;;;;;;;;4991710;28;20187;-70
2023/12/24 02:29:27;;;;;;;11.77;2.23;;;;;;;;;;4988059;28;20261;-69
2023/12/24 02:31:57;;;;;;;10.00;2.03;;;;;;;;;;4988962;28;20196;-69
2023/12/24 02:34:22;;;;;;;5.50;1.73;;;;;;;;;;4989339;28;20589;-69
2023/12/24 02:36:48;;;;;;;6.57;1.17;;;;;;;;;;4988560;28;20264;-68
2023/12/24 02:39:13;;;;;;;5.70;1.10;;;;;;;;;;4985338;28;20188;-69
2023/12/24 02:41:39;;;;;;;9.47;1.73;;;;;;;;;;4986943;28;20191;-69
2023/12/24 02:44:04;;;;;;;6.67;1.60;;;;;;;;;;4987596;28;20746;-69
2023/12/24 02:46:29;;;;;;;5.97;1.47;;;;;;;;;;4989645;28;20656;-69
2023/12/24 02:48:54;;;;;;;8.23;1.50;;;;;;;;;;4989421;28;20215;-69
2023/12/24 02:51:19;;;;;;;11.63;1.60;;;;;;;;;;4990915;28;20211;-69
2023/12/24 02:53:45;;;;;;;3.50;0.80;;;;;;;;;;4986602;28;20567;-69
2023/12/24 02:56:10;;;;;;;9.40;1.23;;;;;;;;;;4990782;28;20223;-69
2023/12/24 02:58:35;;;;;;;2.75;1.10;;;;;;;;;;4989783;28;20195;-69
2023/12/24 03:01:00;;;;;;;5.50;1.07;;;;;;;;;;4987293;28;20195;-68
2023/12/24 03:03:26;;;;;;;5.00;0.87;;;;;;;;;;4986855;28;20171;-70
2023/12/24 03:05:51;;;;;;;2.03;0.70;;;;;;;;;;4987256;28;20198;-69
2023/12/24 03:08:17;;;;;;;2.60;0.63;;;;;;;;;;4988341;28;20307;-69
2023/12/24 03:10:42;;;;;;;2.03;0.70;;;;;;;;;;4987421;28;20208;-68
2023/12/24 03:13:07;;;;;;;1.60;0.53;;;;;;;;;;4987017;28;20184;-69
2023/12/24 03:15:33;;;;;;;1.25;0.52;;;;;;;;;;4988606;28;20187;-69
2023/12/24 03:17:58;;;;;;;1.57;0.70;;;;;;;;;;4989137;28;20207;-68
2023/12/24 03:20:23;;;;;;;0.80;0.60;;;;;;;;;;4989804;28;20202;-69
2023/12/24 03:22:48;;;;;;;1.87;0.50;;;;;;;;;;4989850;28;20191;-68
2023/12/24 03:25:13;;;;;;;1.67;0.77;;;;;;;;;;4989515;28;20219;-69
2023/12/24 03:27:39;;;;;;;4.72;0.60;;;;;;;;;;4989971;28;20217;-69
2023/12/24 03:30:04;;;;;;;1.67;0.33;;;;;;;;;;4989125;28;20196;-67
2023/12/24 03:32:29;;;;;;;1.73;0.70;;;;;;;;;;4989679;28;20189;-69
2023/12/24 03:34:55;;;;;;;2.53;0.40;;;;;;;;;;4989247;28;20266;-69
2023/12/24 03:37:20;;;;;;;2.73;0.50;;;;;;;;;;4990296;28;20659;-70
2023/12/24 03:39:45;;;;;;;2.10;0.80;;;;;;;;;;4990116;28;20190;-69
2023/12/24 03:42:10;;;;;;;3.87;0.50;;;;;;;;;;4989044;28;20300;-69
2023/12/24 03:44:35;;;;;;;0.70;0.50;;;;;;;;;;4988360;28;20168;-70
2023/12/24 03:47:01;;;;;;;5.40;0.90;;;;;;;;;;4987164;28;20191;-69
2023/12/24 03:49:26;;;;;;;3.40;1.05;;;;;;;;;;4988039;28;20204;-69
2023/12/24 03:51:51;;;;;;;2.20;0.93;;;;;;;;;;4987030;28;20212;-70
2023/12/24 03:54:21;;;;;;;2.83;0.83;;;;;;;;;;4987869;28;20172;-69
2023/12/24 03:56:47;;;;;;;8.97;1.43;;;;;;;;;;4985112;28;20730;-69
2023/12/24 03:59:12;;;;;;;3.30;1.00;;;;;;;;;;4989006;28;20191;-68
2023/12/24 04:01:37;;;;;;;2.60;0.77;;;;;;;;;;4988488;28;20200;-70
2023/12/24 04:04:02;;;;;;;5.00;1.13;;;;;;;;;;4989124;28;20191;-69
2023/12/24 04:06:27;;;;;;;5.53;1.00;;;;;;;;;;4988839;28;20552;-70
2023/12/24 04:08:52;;;;;;;4.80;0.87;;;;;;;;;;4990254;28;20266;-70
2023/12/24 04:11:18;;;;;;;5.00;1.07;;;;;;;;;;4985606;28;20200;-68
2023/12/24 04:13:43;;;;;;;3.73;0.80;;;;;;;;;;4991020;28;20545;-70
2023/12/24 04:16:09;;;;;;;4.97;1.13;;;;;;;;;;4990311;28;20264;-70
2023/12/24 04:18:34;;;;;;;1.77;0.83;;;;;;;;;;4988976;28;20618;-69
2023/12/24 04:20:59;;;;;;;4.77;1.00;;;;;;;;;;4988424;28;20207;-70
2023/12/24 04:23:25;;;;;;;6.80;1.20;;;;;;;;;;4989810;28;20249;-69
2023/12/24 04:25:50;;;;;;;5.80;1.20;;;;;;;;;;4987187;28;20270;-70
2023/12/24 04:28:15;;;;;;;9.93;1.97;;;;;;;;;;4990936;28;20204;-70
2023/12/24 04:30:40;;;;;;;3.87;1.07;;;;;;;;;;4988273;28;20206;-70
2023/12/24 04:33:06;;;;;;;5.00;1.30;;;;;;;;;;4989498;28;21188;-70
2023/12/24 04:35:31;;;;;;;5.67;1.67;;;;;;;;;;4986757;28;20651;-70
2023/12/24 04:37:56;;;;;;;4.73;1.27;;;;;;;;;;4990134;28;20183;-69
2023/12/24 04:40:21;;;;;;;6.43;1.00;;;;;;;;;;4991352;28;20199;-68
2023/12/24 04:42:47;;;;;;;2.00;0.93;;;;;;;;;;4993009;28;20190;-70
2023/12/24 04:45:12;;;;;;;3.63;1.30;;;;;;;;;;4989187;28;20622;-69
2023/12/24 04:47:37;;;;;;;4.23;1.03;;;;;;;;;;4994341;28;20202;-69
2023/12/24 04:50:03;;;;;;;6.80;1.07;;;;;;;;;;4994167;28;20210;-70
2023/12/24 04:52:28;;;;;;;2.80;1.17;;;;;;;;;;4993468;28;20238;-70
2023/12/24 04:54:53;;;;;;;8.00;1.70;;;;;;;;;;4991229;28;20183;-70
2023/12/24 04:57:18;;;;;;;4.73;1.23;;;;;;;;;;4988577;28;20175;-69
2023/12/24 04:59:44;;;;;;;5.53;1.27;;;;;;;;;;4991987;28;20182;-70
2023/12/24 05:02:09;;;;;;;2.37;1.03;;;;;;;;;;4991808;28;20192;-71
2023/12/24 05:04:35;;;;;;;9.37;1.60;;;;;;;;;;4989308;28;20180;-70
2023/12/24 05:07:00;;;;;;;4.70;1.57;;;;;;;;;;4987962;28;20183;-70
2023/12/24 05:09:26;;;;;;;9.00;2.10;;;;;;;;;;4990713;28;20223;-70
2023/12/24 05:11:51;;;;;;;9.70;1.40;;;;;;;;;;4989425;28;20200;-69
2023/12/24 05:14:16;;;;;;;6.43;1.93;;;;;;;;;;4992771;28;20176;-70
2023/12/24 05:16:41;;;;;;;10.57;1.67;;;;;;;;;;4990924;28;20238;-67
2023/12/24 05:19:06;;;;;;;9.13;2.40;;;;;;;;;;4987915;28;20180;-67
2023/12/24 05:21:31;;;;;;;8.70;2.60;;;;;;;;;;4990265;28;20219;-68
2023/12/24 05:23:57;;;;;;;4.90;2.00;;;;;;;;;;4993070;28;20195;-69
2023/12/24 05:26:24;;;;;;;10.45;2.33;;;;;;;;;;4992895;28;20203;-70
2023/12/24 05:28:50;;;;;;;9.87;2.40;;;;;;;;;;4990078;28;20227;-69
2023/12/24 05:31:15;;;;;;;6.43;2.23;;;;;;;;;;4990441;28;20671;-68
2023/12/24 05:33:40;;;;;;;10.37;2.20;;;;;;;;;;4991363;28;20172;-69
2023/12/24 05:36:05;;;;;;;12.93;3.37;;;;;;;;;;4992043;28;20180;-69
2023/12/24 05:38:31;;;;;;;4.63;2.30;;;;;;;;;;4990459;28;20179;-69
2023/12/24 05:40:56;;;;;;;12.90;2.10;;;;;;;;;;4991465;28;20210;-68
2023/12/24 05:43:21;;;;;;;6.23;1.67;;;;;;;;;;4991075;28;20187;-68
2023/12/24 05:45:47;;;;;;;8.87;2.77;;;;;;;;;;4992316;28;20180;-68
2023/12/24 05:48:12;;;;;;;14.00;2.23;;;;;;;;;;4992776;28;20294;-68
2023/12/24 05:50:39;;;;;;;26.63;3.00;;;;;;;;;;4991659;28;20298;-68
2023/12/24 05:53:04;;;;;;;11.02;2.65;;;;;;;;;;4988241;28;20270;-68
2023/12/24 05:55:29;;;;;;;7.13;1.70;;;;;;;;;;4987675;28;20214;-67
2023/12/24 05:57:54;;;;;;;9.63;2.07;;;;;;;;;;4989166;28;20184;-70
2023/12/24 06:00:20;;;;;;;8.27;1.55;;;;;;;;;;4986470;28;20650;-69
2023/12/24 06:02:45;;;;;;;9.37;1.70;;;;;;;;;;4992416;28;20191;-69
2023/12/24 06:05:10;;;;;;;7.67;2.60;;;;;;;;;;4988381;28;20184;-70
2023/12/24 06:07:36;;;;;;;5.20;2.30;;;;;;;;;;4990899;28;20204;-69
2023/12/24 06:10:01;;;;;;;8.37;2.33;;;;;;;;;;4993544;28;20179;-69
2023/12/24 06:12:26;;;;;;;11.30;2.67;;;;;;;;;;4994845;28;20201;-69
2023/12/24 06:14:51;;;;;;;13.77;2.80;;;;;;;;;;4994238;28;20195;-68
2023/12/24 06:17:16;;;;;;;15.90;2.13;;;;;;;;;;4987033;28;20180;-69
2023/12/24 06:19:43;;;;;;;12.40;2.70;;;;;;;;;;4990390;28;20589;-69
2023/12/24 06:22:08;;;;;;;10.13;4.00;;;;;;;;;;4989231;28;20207;-69
2023/12/24 06:24:34;;;;;;;9.25;2.78;;;;;;;;;;4990482;28;20233;-69
2023/12/24 06:26:59;;;;;;;15.32;3.83;;;;;;;;;;4989690;28;20183;-69
2023/12/24 06:29:24;;;;;;;16.20;3.80;;;;;;;;;;4990573;28;20207;-69
2023/12/24 06:31:49;;;;;;;8.25;2.70;;;;;;;;;;4992722;28;20266;-68
2023/12/24 06:34:15;;;;;;;17.05;3.22;;;;;;;;;;4986069;28;20548;-69
2023/12/24 06:36:40;;;;;;;18.65;3.20;;;;;;;;;;4993714;28;20192;-69
2023/12/24 06:39:05;;;;;;;14.93;3.23;;;;;;;;;;4992630;28;21149;-68
2023/12/24 06:41:30;;;;;;;10.75;3.55;;;;;;;;;;4994619;28;20599;-68
2023/12/24 06:43:55;;;;;;;19.40;3.15;;;;;;;;;;4992896;28;20262;-68
2023/12/24 06:46:21;;;;;;;18.63;3.30;;;;;;;;;;4990326;28;20270;-68
2023/12/24 06:48:46;;;;;;;9.82;2.78;;;;;;;;;;4989266;28;20290;-69
2023/12/24 06:51:12;;;;;;;19.23;3.83;;;;;;;;;;4989798;28;20211;-69
2023/12/24 06:53:37;;;;;;;16.00;3.30;;;;;;;;;;4986997;28;20523;-70
2023/12/24 06:56:02;;;;;;;14.43;4.00;;;;;;;;;;4988226;28;20176;-69
2023/12/24 06:58:28;;;;;;;19.35;3.95;;;;;;;;;;4989291;28;20172;-69
2023/12/24 07:00:53;;;;;;;13.47;3.53;;;;;;;;;;4989299;28;20204;-69
2023/12/24 07:03:18;;;;;;;22.38;3.72;;;;;;;;;;4988296;28;20558;-68
2023/12/24 07:05:43;;;;;;;22.20;4.22;;;;;;;;;;4990967;28;20188;-69
2023/12/24 07:08:09;;;;;;;17.73;3.55;;;;;;;;;;4986148;28;20203;-69
2023/12/24 07:10:36;;;;;;;17.77;3.37;;;;;;;;;;4992243;28;20199;-68
2023/12/24 07:13:01;;;;;;;24.33;4.88;;;;;;;;;;4986998;28;20615;-69
2023/12/24 07:15:26;;;;;;;15.32;4.55;;;;;;;;;;4989643;28;20266;-69
2023/12/24 07:17:51;;;;;;;16.52;3.65;;;;;;;;;;4990206;28;20191;-68
2023/12/24 07:20:16;;;;;;;21.75;4.45;;;;;;;;;;4989087;28;20577;-69
2023/12/24 07:22:42;;;;;;;20.27;3.67;;;;;;;;;;4986971;28;20656;-69
2023/12/24 07:25:07;;;;;;;22.83;3.95;;;;;;;;;;4989891;28;20179;-69
2023/12/24 07:27:32;;;;;;;31.30;5.07;;;;;;;;;;4994467;28;20230;-70
2023/12/24 07:29:58;;;;;;;23.63;4.30;;;;;;;;;;4985826;28;20255;-67
2023/12/24 07:32:23;;;;;;;16.33;4.18;;;;;;;;;;4987589;28;20176;-68
2023/12/24 07:34:48;;;;;;;16.98;4.18;;;;;;;;;;4987902;28;20167;-68
2023/12/24 07:37:14;;;;;;;20.08;5.25;;;;;;;;;;4987393;28;20179;-69
2023/12/24 07:39:39;;;;;;;19.15;5.22;;;;;;;;;;4989866;28;20171;-69
2023/12/24 07:42:04;;;;;;;14.48;3.95;;;;;;;;;;4986945;28;20241;-69
2023/12/24 07:44:29;;;;;;;19.27;4.93;;;;;;;;;;4990137;28;20195;-69
2023/12/24 07:46:55;;;;;;;17.02;4.60;;;;;;;;;;4986612;28;20191;-71
2023/12/24 07:49:20;;;;;;;9.93;3.15;;;;;;;;;;4988848;28;20203;-70
2023/12/24 07:51:47;;;;;;;12.75;2.90;;;;;;;;;;4989300;28;20223;-68
2023/12/24 07:54:12;;;;;;;13.32;2.75;;;;;;;;;;4987628;28;20176;-69
2023/12/24 07:56:37;;;;;;;12.43;2.47;;;;;;;;;;4987510;28;20176;-69
2023/12/24 07:59:03;;;;;;;15.32;2.28;;;;;;;;;;4988392;28;20202;-69
2023/12/24 08:01:28;;;;;;;3.53;1.98;;;;;;;;;;4989351;28;20230;-69
2023/12/24 08:03:53;;;;;;;8.57;1.52;;;;;;;;;;4990499;28;20183;-68
2023/12/24 08:06:20;;;;;;;5.68;2.30;;;;;;;;;;4989031;28;20171;-69
2023/12/24 08:08:46;;;;;;;4.75;1.40;;;;;;;;;;4989958;28;20215;-69
2023/12/24 08:11:11;;;;;;;9.70;1.58;;;;;;;;;;4987443;28;20674;-69
2023/12/24 08:13:36;;;;;;;6.93;1.90;;;;;;;;;;4990958;28;20702;-69
2023/12/24 08:16:02;;;;;;;5.38;1.58;;;;;;;;;;4993362;28;20179;-69
2023/12/24 08:18:27;;;;;;;6.20;1.35;;;;;;;;;;4994699;28;20447;-70
2023/12/24 08:20:52;;;;;;;5.72;1.77;;;;;;;;;;4993524;28;20231;-69
2023/12/24 08:23:17;;;;;;;9.57;2.40;;;;;;;;;;4992859;28;20211;-69
2023/12/24 08:25:42;;;;;;;5.13;1.65;;;;;;;;;;4990599;28;20602;-69
2023/12/24 08:28:08;;;;;;;11.77;1.88;;;;;;;;;;4994702;28;20191;-69
2023/12/24 08:30:33;;;;;;;14.45;2.30;;;;;;;;;;4989825;28;20187;-69
2023/12/24 08:32:58;;;;;;;9.52;2.70;;;;;;;;;;4993095;28;20171;-70
2023/12/24 08:35:23;;;;;;;15.63;3.00;;;;;;;;;;4990153;28;20187;-69
2023/12/24 08:37:49;;;;;;;10.73;2.83;;;;;;;;;;4991281;28;20319;-69
2023/12/24 08:40:14;;;;;;;14.35;3.00;;;;;;;;;;4988663;28;20192;-70
2023/12/24 08:42:40;;;;;;;16.85;3.55;;;;;;;;;;4991676;28;20669;-68
2023/12/24 08:45:05;;;;;;;16.00;3.03;;;;;;;;;;4990186;28;20176;-69
2023/12/24 08:47:30;;;;;;;19.42;3.70;;;;;;;;;;4991447;28;20665;-69
2023/12/24 08:49:57;;;;;;;17.98;3.88;;;;;;;;;;4988302;28;20180;-69
2023/12/24 08:52:22;;;;;;;19.00;4.50;;;;;;;;;;4991720;28;20255;-69
2023/12/24 08:54:47;;;;;;;19.67;4.05;;;;;;;;;;4989218;28;20203;-69
2023/12/24 08:57:13;;;;;;;11.27;4.40;;;;;;;;;;4993109;28;20667;-69
2023/12/24 08:59:38;;;;;;;17.83;4.40;;;;;;;;;;4993159;28;20652;-68
2023/12/24 09:02:03;;;;;;;17.67;4.07;;;;;;;;;;4988771;28;20223;-69
2023/12/24 09:04:28;;;;;;;11.75;3.08;;;;;;;;;;4991266;28;20921;-69
2023/12/24 09:06:54;;;;;;;17.10;3.25;;;;;;;;;;4990451;28;20246;-70
2023/12/24 09:09:19;;;;;;;14.20;3.70;;;;;;;;;;4991140;28;20192;-69
2023/12/24 09:11:44;;;;;;;20.77;3.38;;;;;;;;;;4987462;28;20196;-70
2023/12/24 09:14:09;;;;;;;19.33;3.47;;;;;;;;;;4988398;28;20186;-70
2023/12/24 09:16:35;;;;;;;19.40;4.15;;;;;;;;;;4986114;28;20259;-69
2023/12/24 09:19:00;;;;;;;18.92;4.15;;;;;;;;;;4986852;28;20548;-69
2023/12/24 09:21:26;;;;;;;21.27;4.85;;;;;;;;;;4989312;28;20210;-69
2023/12/24 09:23:51;;;;;;;13.98;3.83;;;;;;;;;;4990416;28;20218;-69
2023/12/24 09:26:17;;;;;;;20.92;4.13;;;;;;;;;;4991158;28;20875;-69
2023/12/24 09:28:42;;;;;;;19.00;5.05;;;;;;;;;;4990244;28;20298;-68
2023/12/24 09:31:07;;;;;;;20.63;4.43;;;;;;;;;;4987053;28;20631;-69
2023/12/24 09:33:33;;;;;;;18.05;4.65;;;;;;;;;;4989431;28;20176;-69
2023/12/24 09:35:58;;;;;;;32.13;6.75;;;;;;;;;;4986566;28;20191;-69
2023/12/24 09:38:23;;;;;;;33.60;5.65;;;;;;;;;;4991764;28;20313;-70
2023/12/24 09:40:49;;;;;;;24.98;5.40;;;;;;;;;;4989529;28;20208;-70
2023/12/24 09:43:14;;;;;;;22.27;4.75;;;;;;;;;;4989454;28;20183;-69
2023/12/24 09:45:39;;;;;;;24.45;5.70;;;;;;;;;;4989682;28;20230;-69
2023/12/24 09:48:04;;;;;;;19.15;5.03;;;;;;;;;;4988962;28;20203;-69
2023/12/24 09:50:30;;;;;;;35.00;7.25;;;;;;;;;;4985921;28;20204;-69
2023/12/24 09:52:55;;;;;;;27.20;5.50;;;;;;;;;;4989593;28;20262;-69
2023/12/24 09:55:21;;;;;;;19.48;4.97;;;;;;;;;;4987531;28;20176;-70
2023/12/24 09:57:46;;;;;;;24.80;6.40;;;;;;;;;;4988564;28;20187;-70
2023/12/24 10:00:13;;;;;;;29.27;5.50;;;;;;;;;;4988311;28;20213;-69
2023/12/24 10:02:38;;;;;;;37.97;7.07;;;;;;;;;;4989765;28;20184;-68
2023/12/24 10:05:04;;;;;;;24.45;5.90;;;;;;;;;;4991571;28;20854;-70
2023/12/24 10:07:36;;;;;;;24.20;4.95;;;;;;;;;;4989035;28;20180;-69
2023/12/24 10:10:02;;;;;;;27.40;5.32;;;;;;;;;;4986211;28;20177;-69
2023/12/24 10:12:27;;;;;;;14.85;5.72;;;;;;;;;;4988705;28;20536;-70
2023/12/24 10:14:54;;;;;;;22.45;5.43;;;;;;;;;;4986343;28;20238;-69
2023/12/24 10:17:29;;;;;;;36.80;6.75;;;;;;;;;;4992383;28;20168;-70
2023/12/24 10:19:58;;;;;;;22.98;4.72;;;;;;;;;;4989713;28;20614;-70
2023/12/24 10:22:23;;;;;;;25.25;5.28;;;;;;;;;;4991001;28;20180;-69
2023/12/24 10:24:49;;;;;;;17.27;4.20;;;;;;;;;;4990233;28;20249;-69
2023/12/24 10:27:15;;;;;;;23.33;5.05;;;;;;;;;;4986660;28;20207;-69
2023/12/24 10:29:41;;;;;;;21.65;4.25;;;;;;;;;;4987113;28;20208;-69
2023/12/24 10:32:09;;;;;;;28.27;5.60;;;;;;;;;;4988262;28;20210;-69
2023/12/24 10:34:35;;;;;;;21.55;4.45;;;;;;;;;;4990514;28;20176;-69
2023/12/24 10:37:17;;;;;;;22.63;5.00;;;;;;;;;;4989145;28;20175;-69
2023/12/24 10:39:43;;;;;;;19.13;4.72;;;;;;;;;;4989198;28;20262;-69
2023/12/24 10:42:08;;;;;;;17.25;4.03;;;;;;;;;;4990706;28;20278;-69
2023/12/24 10:44:33;;;;;;;21.67;4.75;;;;;;;;;;4991761;28;20206;-70
2023/12/24 10:46:59;;;;;;;17.50;4.25;;;;;;;;;;4991413;28;20179;-69
2023/12/24 10:49:24;;;;;;;23.05;5.47;;;;;;;;;;4989352;28;20215;-69
2023/12/24 10:51:49;;;;;;;21.40;4.13;;;;;;;;;;4989117;28;20212;-69
2023/12/24 10:54:15;;;;;;;17.15;3.63;;;;;;;;;;4990700;28;20259;-69
2023/12/24 10:56:49;;;;;;;13.70;3.00;;;;;;;;;;4988185;28;20171;-70
2023/12/24 10:59:33;;;;;;;11.07;3.67;;;;;;;;;;4984560;28;20178;-70
2023/12/24 11:01:59;;;;;;;15.02;3.22;;;;;;;;;;4988536;28;20728;-69
2023/12/24 11:04:44;;;;;;;8.88;2.33;;;;;;;;;;4991059;28;20555;-69
2023/12/24 11:07:29;;;;;;;10.73;2.15;;;;;;;;;;4988521;28;20655;-70
2023/12/24 11:09:55;;;;;;;11.93;3.25;;;;;;;;;;5002386;28;20198;-69
2023/12/24 11:12:30;;;;;;;8.15;1.95;;;;;;;;;;4991865;28;20175;-68
2023/12/24 11:14:55;;;;;;;5.80;2.15;;;;;;;;;;4986633;28;20262;-69
2023/12/24 11:17:40;;;;;;;16.08;2.08;;;;;;;;;;4990570;28;20262;-70
2023/12/24 11:20:26;;;;;;;4.70;1.60;;;;;;;;;;4987258;28;20215;-69
2023/12/24 11:23:03;;;;;;;13.25;2.45;;;;;;;;;;4987713;28;20223;-68
2023/12/24 11:25:41;;;;;;;7.28;2.53;;;;;;;;;;4989424;28;20177;-69
2023/12/24 11:28:11;;;;;;;9.48;2.40;;;;;;;;;;4988914;28;20283;-70
2023/12/24 11:30:51;;;;;;;6.75;2.80;;;;;;;;;;4988905;28;20192;-70
2023/12/24 11:33:28;;;;;;;19.25;2.38;;;;;;;;;;4983617;28;20180;-69
2023/12/24 11:35:54;;;;;;;9.38;2.85;;;;;;;;;;4989709;28;20605;-69
2023/12/24 11:38:35;;;;;;;13.88;2.42;;;;;;;;;;4989541;28;20731;-69
2023/12/24 11:41:04;;;;;;;12.60;3.33;;;;;;;;;;4988406;28;20207;-69
2023/12/24 11:43:29;;;;;;;12.27;2.92;;;;;;;;;;4987640;28;20179;-70
2023/12/24 11:45:54;;;;;;;12.10;2.45;;;;;;;;;;4989153;28;20287;-68
2023/12/24 11:48:19;;;;;;;11.90;2.40;;;;;;;;;;4988737;28;20587;-70
2023/12/24 11:50:45;;;;;;;8.25;3.00;;;;;;;;;;4988693;28;20308;-69
2023/12/24 11:53:10;;;;;;;13.68;3.88;;;;;;;;;;4988151;28;20172;-69
2023/12/24 11:55:35;;;;;;;10.40;2.97;;;;;;;;;;4988922;28;20176;-70
2023/12/24 11:58:01;;;;;;;11.70;3.00;;;;;;;;;;4986991;28;20666;-70
2023/12/24 12:00:27;;;;;;;14.15;3.72;;;;;;;;;;4988152;28;20238;-70
2023/12/24 12:02:52;;;;;;;14.32;3.50;;;;;;;;;;4986482;28;20669;-69
2023/12/24 12:05:18;;;;;;;14.63;4.03;;;;;;;;;;4989737;28;20602;-70
2023/12/24 12:07:43;;;;;;;14.85;3.88;;;;;;;;;;4988232;28;20600;-70
2023/12/24 12:10:08;;;;;;;13.85;3.72;;;;;;;;;;4987428;28;20207;-70
2023/12/24 12:12:33;;;;;;;19.95;3.60;;;;;;;;;;4988391;28;20176;-70
2023/12/24 12:14:58;;;;;;;20.02;3.92;;;;;;;;;;4988448;28;20319;-69
2023/12/24 12:17:24;;;;;;;17.90;4.43;;;;;;;;;;4987641;28;20559;-70
2023/12/24 12:19:49;;;;;;;20.27;3.58;;;;;;;;;;4987059;28;20557;-69
2023/12/24 12:22:14;;;;;;;26.30;4.00;;;;;;;;;;4991706;28;20682;-69
2023/12/24 12:24:39;;;;;;;16.92;3.30;;;;;;;;;;4988137;28;20195;-69
2023/12/24 12:27:04;;;;;;;18.60;3.45;;;;;;;;;;4989817;28;20254;-69
2023/12/24 12:29:31;;;;;;;10.82;3.33;;;;;;;;;;4988378;28;20211;-69
2023/12/24 12:31:58;;;;;;;19.25;3.65;;;;;;;;;;4987055;28;20296;-70
2023/12/24 12:34:23;;;;;;;32.22;3.47;;;;;;;;;;4988788;28;20711;-69
2023/12/24 12:36:48;;;;;;;18.20;3.70;;;;;;;;;;4990189;28;20188;-70
2023/12/24 12:39:14;;;;;;;16.25;3.78;;;;;;;;;;4983318;28;20542;-70
2023/12/24 12:41:39;;;;;;;16.85;3.05;;;;;;;;;;4988994;28;20204;-68
2023/12/24 12:44:04;;;;;;;9.65;3.10;;;;;;;;;;4987166;28;20187;-69
2023/12/24 12:46:30;;;;;;;6.53;2.38;;;;;;;;;;4988699;28;20226;-69
2023/12/24 12:48:55;;;;;;;17.55;2.95;;;;;;;;;;4987372;28;20199;-70
2023/12/24 12:51:20;;;;;;;11.98;3.00;;;;;;;;;;5008621;22;20233;-71
2023/12/24 12:53:46;;;;;;;16.10;4.38;;;;;;;;;;4992697;28;20190;-70
2023/12/24 12:56:11;;;;;;;10.95;3.97;;;;;;;;;;4989084;28;20473;-71
2023/12/24 12:58:36;;;;;;;20.35;3.35;;;;;;;;;;4989350;28;20215;-71
2023/12/24 13:01:01;;;;;;;16.27;3.90;;;;;;;;;;4992137;28;20209;-72
2023/12/24 13:03:27;;;;;;;12.77;3.28;;;;;;;;;;4994879;28;20262;-71
2023/12/24 13:05:54;;;;;;;14.52;4.45;;;;;;;;;;4991627;28;20188;-71
2023/12/24 13:08:20;;;;;;;17.77;4.78;;;;;;;;;;4990252;28;20200;-71
2023/12/24 13:10:45;;;;;;;14.63;3.00;;;;;;;;;;4990314;28;20245;-71
2023/12/24 13:13:11;;;;;;;14.07;4.10;;;;;;;;;;4987699;28;20184;-71
2023/12/24 13:15:45;;;;;;;11.63;3.42;;;;;;;;;;4990482;28;20220;-72
2023/12/24 13:18:14;;;;;;;14.77;3.13;;;;;;;;;;4989855;28;20441;-72
2023/12/24 13:20:40;;;;;;;22.67;4.30;;;;;;;;;;4991764;28;20199;-71
2023/12/24 13:23:08;;;;;;;18.40;4.45;;;;;;;;;;5000805;28;20774;-72
2023/12/24 13:25:33;;;;;;;23.98;5.40;;;;;;;;;;4998189;28;20380;-71
2023/12/24 13:27:58;;;;;;;29.50;5.00;;;;;;;;;;4993151;28;20581;-72
2023/12/24 13:30:23;;;;;;;18.85;4.63;;;;;;;;;;4990915;28;20195;-71
2023/12/24 13:32:48;;;;;;;19.00;4.55;;;;;;;;;;4988576;28;20401;-71
2023/12/24 13:35:14;;;;;;;16.83;4.63;;;;;;;;;;4993025;28;20172;-72
2023/12/24 13:37:39;;;;;;;18.38;4.38;;;;;;;;;;4990365;28;20269;-71
2023/12/24 13:40:06;;;;;;;18.17;3.67;;;;;;;;;;4989972;28;20184;-72
2023/12/24 13:42:31;;;;;;;16.02;3.72;;;;;;;;;;4987487;28;20571;-72
2023/12/24 13:44:56;;;;;;;17.52;4.72;;;;;;;;;;4987653;28;20229;-72
2023/12/24 13:47:21;;;;;;;18.70;4.43;;;;;;;;;;4988480;28;20179;-72
2023/12/24 13:49:46;;;;;;;15.55;3.92;;;;;;;;;;4993543;28;20290;-72
2023/12/24 13:52:12;;;;;;;17.67;4.45;;;;;;;;;;4986508;28;20675;-71
2023/12/24 13:54:37;;;;;;;15.02;3.00;;;;;;;;;;4993316;28;20242;-71
2023/12/24 13:57:03;;;;;;;19.75;4.18;;;;;;;;;;4987543;28;20180;-71
2023/12/24 13:59:28;;;;;;;20.92;4.75;;;;;;;;;;4994149;28;20175;-71
2023/12/24 14:01:53;;;;;;;23.30;2.75;;;;;;;;;;4989573;28;20203;-70
2023/12/24 14:04:19;;;;;;;19.63;3.25;;;;;;;;;;4991853;28;20674;-71
2023/12/24 14:06:44;;;;;;;21.23;3.45;;;;;;;;;;4998769;28;20183;-71
2023/12/24 14:09:09;;;;;;;12.65;3.90;;;;;;;;;;4988692;28;20207;-71
2023/12/24 14:11:35;;;;;;;17.05;3.33;;;;;;;;;;4990188;28;20722;-71
2023/12/24 14:14:01;;;;;;;12.23;2.97;;;;;;;;;;4990091;28;20647;-71
2023/12/24 14:16:26;;;;;;;14.40;3.42;;;;;;;;;;4989895;28;20171;-70
2023/12/24 14:18:53;;;;;;;10.63;2.40;;;;;;;;;;4991094;28;20543;-73
2023/12/24 14:21:19;;;;;;;17.40;4.22;;;;;;;;;;4991742;28;20290;-73
2023/12/24 14:23:44;;;;;;;12.93;3.03;;;;;;;;;;4992716;28;20233;-71
2023/12/24 14:26:09;;;;;;;14.25;4.10;;;;;;;;;;4991048;28;20184;-70
2023/12/24 14:28:34;;;;;;;14.18;3.50;;;;;;;;;;4992508;28;20199;-71
2023/12/24 14:30:59;;;;;;;16.38;4.63;;;;;;;;;;4990508;28;20278;-71